sensor_id;sensor_type;location;lat;lon;timestamp;pressure;altitude;pressure_sealevel;temperature;humidity
75051;BME280;63628;47.656;11.310;2023-05-20T00:00:47;94824.31;;;12.70;74.88
75051;BME280;63628;47.656;11.310;2023-05-20T00:03:14;94826.84;;;12.60;74.85
75051;BME280;63628;47.656;11.310;2023-05-20T00:05:41;94814.03;;;12.57;75.19
75051;BME280;63628;47.656;11.310;2023-05-20T00:08:08;94822.41;;;12.65;75.07
75051;BME280;63628;47.656;11.310;2023-05-20T00:10:36;94818.44;;;12.68;74.77
75051;BME280;63628;47.656;11.310;2023-05-20T00:13:03;94819.75;;;12.65;74.92
75051;BME280;63628;47.656;11.310;2023-05-20T00:15:30;94815.22;;;12.66;74.85
75051;BME280;63628;47.656;11.310;2023-05-20T00:17:59;94809.13;;;12.65;74.66
75051;BME280;63628;47.656;11.310;2023-05-20T00:20:26;94808.97;;;12.55;74.91
75051;BME280;63628;47.656;11.310;2023-05-20T00:22:53;94803.19;;;12.58;74.86
75051;BME280;63628;47.656;11.310;2023-05-20T00:25:20;94802.63;;;12.56;75.02
75051;BME280;63628;47.656;11.310;2023-05-20T00:27:47;94801.25;;;12.54;75.02
75051;BME280;63628;47.656;11.310;2023-05-20T00:30:14;94799.66;;;12.53;74.99
75051;BME280;63628;47.656;11.310;2023-05-20T00:32:40;94803.13;;;12.53;75.01
75051;BME280;63628;47.656;11.310;2023-05-20T00:35:08;94799.66;;;12.53;74.91
75051;BME280;63628;47.656;11.310;2023-05-20T00:37:36;94801.25;;;12.54;75.06
75051;BME280;63628;47.656;11.310;2023-05-20T00:40:04;94798.47;;;12.44;71.29
75051;BME280;63628;47.656;11.310;2023-05-20T00:42:31;94791.41;;;11.14;78.79
75051;BME280;63628;47.656;11.310;2023-05-20T00:44:59;94785.34;;;12.20;76.26
75051;BME280;63628;47.656;11.310;2023-05-20T00:47:29;94786.97;;;12.38;75.41
75051;BME280;63628;47.656;11.310;2023-05-20T00:49:59;94787.28;;;12.42;75.38
75051;BME280;63628;47.656;11.310;2023-05-20T00:52:28;94785.44;;;12.42;75.09
75051;BME280;63628;47.656;11.310;2023-05-20T00:54:56;94783.03;;;12.41;75.22
75051;BME280;63628;47.656;11.310;2023-05-20T00:57:24;94788.56;;;12.39;75.41
75051;BME280;63628;47.656;11.310;2023-05-20T00:59:51;94787.78;;;12.38;75.39
75051;BME280;63628;47.656;11.310;2023-05-20T01:02:18;94796.69;;;12.32;75.07
75051;BME280;63628;47.656;11.310;2023-05-20T01:04:45;94786.88;;;12.16;75.93
75051;BME280;63628;47.656;11.310;2023-05-20T01:07:14;94785.00;;;12.33;75.38
75051;BME280;63628;47.656;11.310;2023-05-20T01:09:43;94779.06;;;12.43;74.81
75051;BME280;63628;47.656;11.310;2023-05-20T01:12:13;94775.13;;;12.46;74.82
75051;BME280;63628;47.656;11.310;2023-05-20T01:14:46;94768.53;;;11.36;73.94
75051;BME280;63628;47.656;11.310;2023-05-20T01:17:14;94760.28;;;12.11;75.77
75051;BME280;63628;47.656;11.310;2023-05-20T01:19:44;94757.84;;;10.51;72.32
75051;BME280;63628;47.656;11.310;2023-05-20T01:22:11;94768.50;;;10.09;81.99
75051;BME280;63628;47.656;11.310;2023-05-20T01:24:41;94758.94;;;11.63;78.17
75051;BME280;63628;47.656;11.310;2023-05-20T01:27:09;94763.25;;;12.15;75.82
75051;BME280;63628;47.656;11.310;2023-05-20T01:29:36;94753.28;;;12.22;75.56
75051;BME280;63628;47.656;11.310;2023-05-20T01:32:05;94756.00;;;12.27;75.21
75051;BME280;63628;47.656;11.310;2023-05-20T01:34:34;94761.06;;;12.28;75.02
75051;BME280;63628;47.656;11.310;2023-05-20T01:37:03;94759.13;;;12.24;75.44
75051;BME280;63628;47.656;11.310;2023-05-20T01:39:33;94762.59;;;12.24;75.23
75051;BME280;63628;47.656;11.310;2023-05-20T01:42:04;94758.47;;;12.33;74.90
75051;BME280;63628;47.656;11.310;2023-05-20T01:44:31;94756.88;;;12.32;74.67
75051;BME280;63628;47.656;11.310;2023-05-20T01:46:58;94760.44;;;12.21;74.87
75051;BME280;63628;47.656;11.310;2023-05-20T01:49:27;94757.84;;;12.26;75.05
75051;BME280;63628;47.656;11.310;2023-05-20T01:51:54;94757.28;;;12.24;72.35
75051;BME280;63628;47.656;11.310;2023-05-20T01:54:21;94759.13;;;12.24;73.79
75051;BME280;63628;47.656;11.310;2023-05-20T01:56:48;94757.88;;;10.79;68.61
75051;BME280;63628;47.656;11.310;2023-05-20T01:59:17;94762.41;;;9.97;81.34
75051;BME280;63628;47.656;11.310;2023-05-20T02:01:43;94759.44;;;11.77;76.85
75051;BME280;63628;47.656;11.310;2023-05-20T02:04:11;94755.13;;;12.04;75.53
75051;BME280;63628;47.656;11.310;2023-05-20T02:06:38;94751.50;;;12.11;74.95
75051;BME280;63628;47.656;11.310;2023-05-20T02:09:05;94763.66;;;11.61;69.96
75051;BME280;63628;47.656;11.310;2023-05-20T02:11:32;94770.16;;;11.54;75.83
75051;BME280;63628;47.656;11.310;2023-05-20T02:13:58;94767.84;;;12.02;75.36
75051;BME280;63628;47.656;11.310;2023-05-20T02:16:26;94772.38;;;9.41;81.53
75051;BME280;63628;47.656;11.310;2023-05-20T02:18:53;94758.13;;;11.63;77.21
75051;BME280;63628;47.656;11.310;2023-05-20T02:21:20;94752.81;;;11.91;75.90
75051;BME280;63628;47.656;11.310;2023-05-20T02:23:46;94754.56;;;12.02;75.03
75051;BME280;63628;47.656;11.310;2023-05-20T02:26:13;94760.44;;;12.04;75.10
75051;BME280;63628;47.656;11.310;2023-05-20T02:28:40;94750.16;;;11.91;70.58
75051;BME280;63628;47.656;11.310;2023-05-20T02:31:11;94756.78;;;11.32;76.92
75051;BME280;63628;47.656;11.310;2023-05-20T02:33:39;94753.28;;;11.88;75.74
75051;BME280;63628;47.656;11.310;2023-05-20T02:36:06;94751.34;;;12.00;74.98
75051;BME280;63628;47.656;11.310;2023-05-20T02:38:33;94751.94;;;12.02;74.73
75051;BME280;63628;47.656;11.310;2023-05-20T02:41:00;94745.56;;;12.03;74.44
75051;BME280;63628;47.656;11.310;2023-05-20T02:43:26;94752.56;;;12.10;74.48
75051;BME280;63628;47.656;11.310;2023-05-20T02:45:53;94745.88;;;12.07;74.24
75051;BME280;63628;47.656;11.310;2023-05-20T02:48:20;94744.84;;;12.08;74.32
75051;BME280;63628;47.656;11.310;2023-05-20T02:50:48;94753.84;;;12.07;74.62
75051;BME280;63628;47.656;11.310;2023-05-20T02:53:14;94760.19;;;12.06;74.24
75051;BME280;63628;47.656;11.310;2023-05-20T02:55:41;94761.25;;;12.05;73.33
75051;BME280;63628;47.656;11.310;2023-05-20T02:58:07;94754.50;;;11.97;74.65
75051;BME280;63628;47.656;11.310;2023-05-20T03:00:34;94764.38;;;12.02;74.14
75051;BME280;63628;47.656;11.310;2023-05-20T03:03:06;94762.84;;;11.89;74.88
75051;BME280;63628;47.656;11.310;2023-05-20T03:05:33;94756.03;;;11.93;74.52
75051;BME280;63628;47.656;11.310;2023-05-20T03:08:07;94754.50;;;11.97;74.54
75051;BME280;63628;47.656;11.310;2023-05-20T03:10:35;94753.47;;;11.53;69.66
75051;BME280;63628;47.656;11.310;2023-05-20T03:13:02;94753.78;;;11.85;74.84
75051;BME280;63628;47.656;11.310;2023-05-20T03:15:30;94754.25;;;11.82;75.11
75051;BME280;63628;47.656;11.310;2023-05-20T03:17:57;94753.28;;;11.88;74.85
75051;BME280;63628;47.656;11.310;2023-05-20T03:20:24;94756.09;;;11.98;73.99
75051;BME280;63628;47.656;11.310;2023-05-20T03:22:52;94747.81;;;11.95;74.18
75051;BME280;63628;47.656;11.310;2023-05-20T03:25:21;94746.16;;;11.89;74.29
75051;BME280;63628;47.656;11.310;2023-05-20T03:27:48;94745.63;;;10.50;77.18
75051;BME280;63628;47.656;11.310;2023-05-20T03:30:14;94748.41;;;11.52;75.75
75051;BME280;63628;47.656;11.310;2023-05-20T03:32:41;94747.59;;;11.80;74.48
75051;BME280;63628;47.656;11.310;2023-05-20T03:35:08;94746.81;;;11.67;74.73
75051;BME280;63628;47.656;11.310;2023-05-20T03:37:35;94741.50;;;11.67;70.31
75051;BME280;63628;47.656;11.310;2023-05-20T03:40:02;94748.38;;;8.83;75.66
75051;BME280;63628;47.656;11.310;2023-05-20T03:42:32;94759.00;;;8.95;76.30
75051;BME280;63628;47.656;11.310;2023-05-20T03:44:59;94750.50;;;10.81;78.28
75051;BME280;63628;47.656;11.310;2023-05-20T03:47:26;94744.38;;;11.49;75.45
75051;BME280;63628;47.656;11.310;2023-05-20T03:49:53;94744.63;;;11.64;74.88
75051;BME280;63628;47.656;11.310;2023-05-20T03:52:20;94751.88;;;11.69;74.83
75051;BME280;63628;47.656;11.310;2023-05-20T03:54:47;94750.97;;;10.78;69.68
75051;BME280;63628;47.656;11.310;2023-05-20T03:57:13;94744.06;;;11.46;75.70
75051;BME280;63628;47.656;11.310;2023-05-20T03:59:41;94744.16;;;11.67;74.50
75051;BME280;63628;47.656;11.310;2023-05-20T04:02:08;94739.66;;;11.68;74.20
75051;BME280;63628;47.656;11.310;2023-05-20T04:04:35;94739.19;;;11.71;74.57
75051;BME280;63628;47.656;11.310;2023-05-20T04:07:02;94742.19;;;11.74;73.97
75051;BME280;63628;47.656;11.310;2023-05-20T04:09:30;94735.50;;;11.72;74.41
75051;BME280;63628;47.656;11.310;2023-05-20T04:11:56;94741.06;;;11.70;71.56
75051;BME280;63628;47.656;11.310;2023-05-20T04:14:23;94752.69;;;9.67;76.10
75051;BME280;63628;47.656;11.310;2023-05-20T04:16:51;94746.06;;;9.35;78.95
75051;BME280;63628;47.656;11.310;2023-05-20T04:19:18;94751.63;;;8.67;81.16
75051;BME280;63628;47.656;11.310;2023-05-20T04:21:47;94746.16;;;8.25;82.83
75051;BME280;63628;47.656;11.310;2023-05-20T04:24:14;94755.59;;;8.14;83.43
75051;BME280;63628;47.656;11.310;2023-05-20T04:26:41;94750.59;;;8.86;84.79
75051;BME280;63628;47.656;11.310;2023-05-20T04:29:07;94751.16;;;8.88;80.99
75051;BME280;63628;47.656;11.310;2023-05-20T04:31:34;94760.25;;;9.10;85.00
75051;BME280;63628;47.656;11.310;2023-05-20T04:34:02;94757.69;;;10.69;78.34
75051;BME280;63628;47.656;11.310;2023-05-20T04:36:29;94755.00;;;11.21;76.56
75051;BME280;63628;47.656;11.310;2023-05-20T04:38:56;94747.00;;;11.32;75.41
75051;BME280;63628;47.656;11.310;2023-05-20T04:41:23;94746.03;;;11.38;74.98
75051;BME280;63628;47.656;11.310;2023-05-20T04:43:49;94742.13;;;11.41;74.82
75051;BME280;63628;47.656;11.310;2023-05-20T04:46:16;94737.03;;;10.42;78.93
75051;BME280;63628;47.656;11.310;2023-05-20T04:48:43;94727.63;;;11.03;77.10
75051;BME280;63628;47.656;11.310;2023-05-20T04:51:11;94727.88;;;11.30;75.66
75051;BME280;63628;47.656;11.310;2023-05-20T04:53:37;94732.06;;;11.26;75.00
75051;BME280;63628;47.656;11.310;2023-05-20T04:56:05;94731.19;;;11.37;74.95
75051;BME280;63628;47.656;11.310;2023-05-20T04:58:32;94739.28;;;10.39;78.13
75051;BME280;63628;47.656;11.310;2023-05-20T05:00:59;94738.78;;;9.72;81.80
75051;BME280;63628;47.656;11.310;2023-05-20T05:03:26;94730.38;;;9.51;83.28
75051;BME280;63628;47.656;11.310;2023-05-20T05:05:55;94731.16;;;9.40;84.71
75051;BME280;63628;47.656;11.310;2023-05-20T05:08:23;94720.91;;;10.32;80.42
75051;BME280;63628;47.656;11.310;2023-05-20T05:10:49;94716.19;;;10.86;77.50
75051;BME280;63628;47.656;11.310;2023-05-20T05:13:16;94728.38;;;9.89;82.83
75051;BME280;63628;47.656;11.310;2023-05-20T05:15:43;94719.66;;;9.76;83.80
75051;BME280;63628;47.656;11.310;2023-05-20T05:18:09;94716.19;;;9.88;84.15
75051;BME280;63628;47.656;11.310;2023-05-20T05:20:36;94711.25;;;10.03;83.94
75051;BME280;63628;47.656;11.310;2023-05-20T05:23:03;94719.97;;;10.03;83.70
75051;BME280;63628;47.656;11.310;2023-05-20T05:25:31;94731.19;;;9.52;84.63
75051;BME280;63628;47.656;11.310;2023-05-20T05:27:58;94739.28;;;9.27;86.35
75051;BME280;63628;47.656;11.310;2023-05-20T05:30:25;94741.66;;;9.17;83.51
75051;BME280;63628;47.656;11.310;2023-05-20T05:32:52;94739.41;;;9.97;82.04
75051;BME280;63628;47.656;11.310;2023-05-20T05:35:19;94735.53;;;10.87;78.01
75051;BME280;63628;47.656;11.310;2023-05-20T05:37:46;94734.91;;;11.08;76.97
75051;BME280;63628;47.656;11.310;2023-05-20T05:40:12;94731.63;;;11.18;77.05
75051;BME280;63628;47.656;11.310;2023-05-20T05:42:40;94723.94;;;11.16;76.56
75051;BME280;63628;47.656;11.310;2023-05-20T05:45:08;94723.69;;;11.18;76.25
75051;BME280;63628;47.656;11.310;2023-05-20T05:47:35;94719.56;;;10.82;81.87
75051;BME280;63628;47.656;11.310;2023-05-20T05:50:02;94718.56;;;10.99;81.81
75051;BME280;63628;47.656;11.310;2023-05-20T05:52:29;94713.13;;;11.34;81.79
75051;BME280;63628;47.656;11.310;2023-05-20T05:54:55;94714.75;;;11.52;81.34
75051;BME280;63628;47.656;11.310;2023-05-20T05:57:22;94716.28;;;11.65;81.98
75051;BME280;63628;47.656;11.310;2023-05-20T05:59:50;94716.41;;;12.03;81.88
75051;BME280;63628;47.656;11.310;2023-05-20T06:02:17;94719.72;;;12.32;79.05
75051;BME280;63628;47.656;11.310;2023-05-20T06:04:44;94715.69;;;12.47;79.27
75051;BME280;63628;47.656;11.310;2023-05-20T06:07:11;94711.16;;;12.09;82.07
75051;BME280;63628;47.656;11.310;2023-05-20T06:09:38;94717.69;;;11.84;80.06
75051;BME280;63628;47.656;11.310;2023-05-20T06:12:04;94728.06;;;12.02;81.60
75051;BME280;63628;47.656;11.310;2023-05-20T06:14:31;94724.72;;;12.67;79.05
75051;BME280;63628;47.656;11.310;2023-05-20T06:16:59;94726.94;;;13.19;76.89
75051;BME280;63628;47.656;11.310;2023-05-20T06:19:27;94727.44;;;12.73;77.98
75051;BME280;63628;47.656;11.310;2023-05-20T06:21:55;94725.44;;;12.63;80.37
75051;BME280;63628;47.656;11.310;2023-05-20T06:24:22;94715.47;;;13.68;78.13
75051;BME280;63628;47.656;11.310;2023-05-20T06:26:50;94724.44;;;13.35;76.35
75051;BME280;63628;47.656;11.310;2023-05-20T06:29:17;94727.44;;;12.73;74.35
75051;BME280;63628;47.656;11.310;2023-05-20T06:31:44;94723.91;;;11.61;79.81
75051;BME280;63628;47.656;11.310;2023-05-20T06:34:12;94720.56;;;11.21;80.05
75051;BME280;63628;47.656;11.310;2023-05-20T06:36:39;94723.44;;;10.51;83.27
75051;BME280;63628;47.656;11.310;2023-05-20T06:39:05;94719.06;;;11.25;80.59
75051;BME280;63628;47.656;11.310;2023-05-20T06:41:38;94719.88;;;10.85;82.58
75051;BME280;63628;47.656;11.310;2023-05-20T06:44:05;94712.44;;;11.10;82.34
75051;BME280;63628;47.656;11.310;2023-05-20T06:46:33;94718.84;;;11.60;80.51
75051;BME280;63628;47.656;11.310;2023-05-20T06:49:00;94718.75;;;10.81;83.07
75051;BME280;63628;47.656;11.310;2023-05-20T06:51:27;94720.91;;;10.44;84.81
75051;BME280;63628;47.656;11.310;2023-05-20T06:53:54;94715.09;;;10.70;84.70
75051;BME280;63628;47.656;11.310;2023-05-20T06:56:21;94719.22;;;10.78;82.34
75051;BME280;63628;47.656;11.310;2023-05-20T06:58:47;94717.22;;;10.85;83.33
75051;BME280;63628;47.656;11.310;2023-05-20T07:01:14;94723.75;;;10.66;83.63
75051;BME280;63628;47.656;11.310;2023-05-20T07:03:43;94717.25;;;11.14;82.01
75051;BME280;63628;47.656;11.310;2023-05-20T07:06:10;94710.72;;;11.33;81.04
75051;BME280;63628;47.656;11.310;2023-05-20T07:08:38;94708.44;;;11.25;80.73
75051;BME280;63628;47.656;11.310;2023-05-20T07:11:05;94706.06;;;11.40;79.21
75051;BME280;63628;47.656;11.310;2023-05-20T07:13:32;94700.91;;;11.33;80.90
75051;BME280;63628;47.656;11.310;2023-05-20T07:15:58;94693.44;;;11.30;80.24
75051;BME280;63628;47.656;11.310;2023-05-20T07:18:25;94695.22;;;11.25;80.88
75051;BME280;63628;47.656;11.310;2023-05-20T07:20:52;94690.16;;;11.57;79.55
75051;BME280;63628;47.656;11.310;2023-05-20T07:23:19;94679.41;;;11.63;79.87
75051;BME280;63628;47.656;11.310;2023-05-20T07:25:47;94678.41;;;12.20;77.86
75051;BME280;63628;47.656;11.310;2023-05-20T07:28:14;94680.38;;;12.07;78.96
75051;BME280;63628;47.656;11.310;2023-05-20T07:30:41;94672.38;;;13.12;77.24
75051;BME280;63628;47.656;11.310;2023-05-20T07:33:07;94668.31;;;13.63;73.37
75051;BME280;63628;47.656;11.310;2023-05-20T07:35:34;94672.09;;;12.86;75.71
75051;BME280;63628;47.656;11.310;2023-05-20T07:38:01;94678.66;;;12.18;77.05
75051;BME280;63628;47.656;11.310;2023-05-20T07:40:28;94672.78;;;12.77;77.96
75051;BME280;63628;47.656;11.310;2023-05-20T07:42:56;94672.50;;;12.13;76.78
75051;BME280;63628;47.656;11.310;2023-05-20T07:45:23;94674.75;;;12.04;78.93
75051;BME280;63628;47.656;11.310;2023-05-20T07:47:50;94675.72;;;12.80;77.53
75051;BME280;63628;47.656;11.310;2023-05-20T07:50:16;94670.63;;;12.13;77.75
75051;BME280;63628;47.656;11.310;2023-05-20T07:52:43;94672.44;;;12.29;77.58
75051;BME280;63628;47.656;11.310;2023-05-20T07:55:22;94668.34;;;12.00;76.99
75051;BME280;63628;47.656;11.310;2023-05-20T07:57:49;94669.06;;;12.34;79.38
75051;BME280;63628;47.656;11.310;2023-05-20T08:00:17;94671.34;;;12.25;77.11
75051;BME280;63628;47.656;11.310;2023-05-20T08:02:44;94656.84;;;12.33;77.27
75051;BME280;63628;47.656;11.310;2023-05-20T08:05:12;94661.97;;;12.83;76.67
75051;BME280;63628;47.656;11.310;2023-05-20T08:07:38;94670.72;;;12.18;76.51
75051;BME280;63628;47.656;11.310;2023-05-20T08:10:07;94667.91;;;12.08;76.86
75051;BME280;63628;47.656;11.310;2023-05-20T08:12:33;94670.50;;;12.03;76.90
75051;BME280;63628;47.656;11.310;2023-05-20T08:15:00;94666.25;;;12.02;76.86
75051;BME280;63628;47.656;11.310;2023-05-20T08:17:28;94666.00;;;12.03;76.90
75051;BME280;63628;47.656;11.310;2023-05-20T08:19:55;94666.00;;;12.03;77.43
75051;BME280;63628;47.656;11.310;2023-05-20T08:22:21;94664.72;;;12.06;76.83
75051;BME280;63628;47.656;11.310;2023-05-20T08:24:48;94664.44;;;13.71;78.71
75051;BME280;63628;47.656;11.310;2023-05-20T08:27:15;94651.59;;;16.31;71.37
75051;BME280;63628;47.656;11.310;2023-05-20T08:29:43;94643.22;;;14.28;70.37
75051;BME280;63628;47.656;11.310;2023-05-20T08:32:10;94647.34;;;14.46;74.88
75051;BME280;63628;47.656;11.310;2023-05-20T08:34:38;94653.59;;;13.82;77.98
75051;BME280;63628;47.656;11.310;2023-05-20T08:37:05;94645.63;;;16.60;70.54
75051;BME280;63628;47.656;11.310;2023-05-20T08:39:32;94652.97;;;15.93;72.26
75051;BME280;63628;47.656;11.310;2023-05-20T08:41:59;94647.34;;;15.29;74.47
75051;BME280;63628;47.656;11.310;2023-05-20T08:44:26;94651.75;;;14.87;70.68
75051;BME280;63628;47.656;11.310;2023-05-20T08:46:53;94659.59;;;15.25;73.10
75051;BME280;63628;47.656;11.310;2023-05-20T08:49:22;94661.00;;;14.17;71.47
75051;BME280;63628;47.656;11.310;2023-05-20T08:51:50;94661.22;;;14.48;72.95
75051;BME280;63628;47.656;11.310;2023-05-20T08:54:17;94654.19;;;14.32;71.32
75051;BME280;63628;47.656;11.310;2023-05-20T08:56:46;94655.53;;;13.01;75.10
75051;BME280;63628;47.656;11.310;2023-05-20T08:59:13;94660.19;;;13.75;74.72
75051;BME280;63628;47.656;11.310;2023-05-20T09:01:41;94649.16;;;13.61;75.09
75051;BME280;63628;47.656;11.310;2023-05-20T09:04:11;94641.84;;;14.68;74.45
75051;BME280;63628;47.656;11.310;2023-05-20T09:06:44;94648.03;;;14.88;72.35
75051;BME280;63628;47.656;11.310;2023-05-20T09:09:12;94654.38;;;14.25;71.82
75051;BME280;63628;47.656;11.310;2023-05-20T09:11:40;94651.84;;;15.08;70.82
75051;BME280;63628;47.656;11.310;2023-05-20T09:14:07;94644.34;;;16.47;67.23
75051;BME280;63628;47.656;11.310;2023-05-20T09:16:34;94648.41;;;16.29;67.51
75051;BME280;63628;47.656;11.310;2023-05-20T09:19:00;94644.63;;;16.35;66.70
75051;BME280;63628;47.656;11.310;2023-05-20T09:21:27;94647.59;;;15.42;71.15
75051;BME280;63628;47.656;11.310;2023-05-20T09:23:54;94651.81;;;17.15;66.12
75051;BME280;63628;47.656;11.310;2023-05-20T09:26:27;94646.03;;;17.41;66.61
75051;BME280;63628;47.656;11.310;2023-05-20T09:28:55;94645.28;;;17.31;64.88
75051;BME280;63628;47.656;11.310;2023-05-20T09:31:25;94637.50;;;16.00;66.09
75051;BME280;63628;47.656;11.310;2023-05-20T09:33:51;94640.69;;;16.97;67.76
75051;BME280;63628;47.656;11.310;2023-05-20T09:36:19;94637.22;;;17.80;63.02
75051;BME280;63628;47.656;11.310;2023-05-20T09:38:50;94642.97;;;17.19;64.94
75051;BME280;63628;47.656;11.310;2023-05-20T09:41:21;94640.94;;;17.40;68.24
75051;BME280;63628;47.656;11.310;2023-05-20T09:43:51;94638.38;;;16.70;65.43
75051;BME280;63628;47.656;11.310;2023-05-20T09:46:19;94643.56;;;17.11;65.89
75051;BME280;63628;47.656;11.310;2023-05-20T09:48:46;94642.50;;;15.00;70.29
75051;BME280;63628;47.656;11.310;2023-05-20T09:51:14;94643.63;;;15.60;70.73
75051;BME280;63628;47.656;11.310;2023-05-20T09:53:42;94643.34;;;15.57;69.16
75051;BME280;63628;47.656;11.310;2023-05-20T09:56:08;94632.13;;;15.39;70.19
75051;BME280;63628;47.656;11.310;2023-05-20T09:58:35;94627.34;;;15.41;70.72
75051;BME280;63628;47.656;11.310;2023-05-20T10:01:04;94621.59;;;14.67;73.09
75051;BME280;63628;47.656;11.310;2023-05-20T10:03:32;94626.63;;;14.11;74.82
75051;BME280;63628;47.656;11.310;2023-05-20T10:06:12;94619.59;;;16.06;69.17
75051;BME280;63628;47.656;11.310;2023-05-20T10:08:57;94619.03;;;16.19;69.42
75051;BME280;63628;47.656;11.310;2023-05-20T10:11:34;94614.53;;;16.04;69.86
75051;BME280;63628;47.656;11.310;2023-05-20T10:14:14;94610.47;;;16.17;70.11
75051;BME280;63628;47.656;11.310;2023-05-20T10:16:49;94609.69;;;16.27;68.69
75051;BME280;63628;47.656;11.310;2023-05-20T10:19:26;94612.38;;;16.06;70.22
75051;BME280;63628;47.656;11.310;2023-05-20T10:21:56;94606.81;;;15.21;72.61
75051;BME280;63628;47.656;11.310;2023-05-20T10:24:28;94601.94;;;16.20;69.87
75051;BME280;63628;47.656;11.310;2023-05-20T10:26:57;94602.22;;;16.08;70.88
75051;BME280;63628;47.656;11.310;2023-05-20T10:29:26;94600.66;;;15.41;72.33
75051;BME280;63628;47.656;11.310;2023-05-20T10:31:54;94597.00;;;17.12;68.90
75051;BME280;63628;47.656;11.310;2023-05-20T10:34:22;94596.88;;;16.93;69.55
75051;BME280;63628;47.656;11.310;2023-05-20T10:36:57;94585.38;;;16.93;68.59
75051;BME280;63628;47.656;11.310;2023-05-20T10:39:25;94584.97;;;17.83;66.14
75051;BME280;63628;47.656;11.310;2023-05-20T10:42:04;94598.22;;;16.91;69.71
75051;BME280;63628;47.656;11.310;2023-05-20T10:44:39;94585.47;;;15.11;75.51
75051;BME280;63628;47.656;11.310;2023-05-20T10:47:08;94590.47;;;14.93;76.24
75051;BME280;63628;47.656;11.310;2023-05-20T10:49:51;94586.22;;;14.91;76.60
75051;BME280;63628;47.656;11.310;2023-05-20T10:56:19;94586.28;;;15.42;75.25
75051;BME280;63628;47.656;11.310;2023-05-20T10:58:47;94586.09;;;16.44;71.14
75051;BME280;63628;47.656;11.310;2023-05-20T11:10:32;94560.81;;;17.54;68.70
75051;BME280;63628;47.656;11.310;2023-05-20T11:13:00;94563.63;;;16.55;71.55
75051;BME280;63628;47.656;11.310;2023-05-20T11:15:28;94558.38;;;16.35;81.01
75051;BME280;63628;47.656;11.310;2023-05-20T11:17:59;94555.03;;;16.68;71.74
75051;BME280;63628;47.656;11.310;2023-05-20T11:20:26;94550.22;;;17.43;69.31
75051;BME280;63628;47.656;11.310;2023-05-20T11:22:54;94551.06;;;15.81;74.82
75051;BME280;63628;47.656;11.310;2023-05-20T11:25:21;94542.81;;;17.93;66.38
75051;BME280;63628;47.656;11.310;2023-05-20T11:27:53;94546.66;;;16.21;73.08
75051;BME280;63628;47.656;11.310;2023-05-20T11:30:20;94548.66;;;15.59;76.56
75051;BME280;63628;47.656;11.310;2023-05-20T11:32:55;94550.78;;;15.57;76.55
75051;BME280;63628;47.656;11.310;2023-05-20T11:35:23;94533.72;;;17.94;68.56
75051;BME280;63628;47.656;11.310;2023-05-20T11:37:54;94531.38;;;18.97;65.30
75051;BME280;63628;47.656;11.310;2023-05-20T11:40:23;94528.38;;;16.48;72.84
75051;BME280;63628;47.656;11.310;2023-05-20T11:42:56;94517.88;;;16.07;74.29
75051;BME280;63628;47.656;11.310;2023-05-20T11:45:23;94512.50;;;17.11;71.74
75051;BME280;63628;47.656;11.310;2023-05-20T11:48:08;94508.19;;;18.87;62.72
75051;BME280;63628;47.656;11.310;2023-05-20T11:50:38;94505.03;;;19.50;65.72
75051;BME280;63628;47.656;11.310;2023-05-20T11:53:06;94506.75;;;20.20;62.02
75051;BME280;63628;47.656;11.310;2023-05-20T11:55:42;94504.50;;;19.53;63.81
75051;BME280;63628;47.656;11.310;2023-05-20T11:58:14;94498.19;;;18.93;61.24
75051;BME280;63628;47.656;11.310;2023-05-20T12:00:41;94501.53;;;19.50;63.33
75051;BME280;63628;47.656;11.310;2023-05-20T12:03:18;94499.13;;;17.11;70.70
75051;BME280;63628;47.656;11.310;2023-05-20T12:05:45;94498.03;;;17.17;73.83
75051;BME280;63628;47.656;11.310;2023-05-20T12:08:13;94494.34;;;18.80;66.40
75051;BME280;63628;47.656;11.310;2023-05-20T12:10:40;94491.50;;;19.42;59.51
75051;BME280;63628;47.656;11.310;2023-05-20T12:13:07;94489.22;;;19.81;62.65
75051;BME280;63628;47.656;11.310;2023-05-20T12:15:35;94484.94;;;19.94;61.44
75051;BME280;63628;47.656;11.310;2023-05-20T12:18:02;94485.03;;;19.43;59.80
75051;BME280;63628;47.656;11.310;2023-05-20T12:20:30;94482.25;;;19.67;59.22
75051;BME280;63628;47.656;11.310;2023-05-20T12:22:56;94479.06;;;20.33;58.87
75051;BME280;63628;47.656;11.310;2023-05-20T12:25:24;94490.91;;;20.05;58.32
75051;BME280;63628;47.656;11.310;2023-05-20T12:31:33;94485.63;;;17.26;69.59
75051;BME280;63628;47.656;11.310;2023-05-20T12:34:00;94486.25;;;18.00;67.81
75051;BME280;63628;47.656;11.310;2023-05-20T12:36:27;94475.69;;;19.86;60.30
75051;BME280;63628;47.656;11.310;2023-05-20T12:38:54;94485.81;;;19.62;58.48
75051;BME280;63628;47.656;11.310;2023-05-20T12:41:21;94480.22;;;18.93;61.78
75051;BME280;63628;47.656;11.310;2023-05-20T12:43:47;94477.66;;;18.46;64.62
75051;BME280;63628;47.656;11.310;2023-05-20T12:46:14;94474.19;;;18.64;63.90
75051;BME280;63628;47.656;11.310;2023-05-20T12:48:42;94476.81;;;19.20;61.80
75051;BME280;63628;47.656;11.310;2023-05-20T12:51:09;94469.66;;;17.45;69.48
75051;BME280;63628;47.656;11.310;2023-05-20T12:53:35;94465.25;;;18.31;66.95
75051;BME280;63628;47.656;11.310;2023-05-20T12:56:03;94458.16;;;20.03;60.22
75051;BME280;63628;47.656;11.310;2023-05-20T12:58:31;94454.59;;;19.52;59.74
75051;BME280;63628;47.656;11.310;2023-05-20T13:00:58;94451.69;;;20.31;58.06
75051;BME280;63628;47.656;11.310;2023-05-20T13:03:24;94444.63;;;20.85;56.68
75051;BME280;63628;47.656;11.310;2023-05-20T13:05:53;94444.44;;;20.81;60.31
75051;BME280;63628;47.656;11.310;2023-05-20T13:08:19;94441.31;;;20.38;57.87
75051;BME280;63628;47.656;11.310;2023-05-20T13:10:46;94453.53;;;18.27;67.37